sensor_id;sensor_type;location;lat;lon;timestamp;temperature;humidity
26623;DHT22;14254;50.968;5.366;2022-11-03T00:01:57;12.60;99.90
26623;DHT22;14254;50.968;5.366;2022-11-03T00:04:22;12.70;99.90
26623;DHT22;14254;50.968;5.366;2022-11-03T00:06:53;12.70;99.90
26623;DHT22;14254;50.968;5.366;2022-11-03T00:09:20;12.70;99.90
26623;DHT22;14254;50.968;5.366;2022-11-03T00:11:47;12.80;99.90
26623;DHT22;14254;50.968;5.366;2022-11-03T00:14:16;12.70;99.90
26623;DHT22;14254;50.968;5.366;2022-11-03T00:16:42;12.80;99.90
26623;DHT22;14254;50.968;5.366;2022-11-03T00:19:09;12.70;99.90
26623;DHT22;14254;50.968;5.366;2022-11-03T00:21:36;12.70;99.90
26623;DHT22;14254;50.968;5.366;2022-11-03T00:24:02;12.70;99.90
26623;DHT22;14254;50.968;5.366;2022-11-03T00:26:30;12.70;99.90
26623;DHT22;14254;50.968;5.366;2022-11-03T00:28:58;12.70;99.90
26623;DHT22;14254;50.968;5.366;2022-11-03T00:31:29;12.60;99.90
26623;DHT22;14254;50.968;5.366;2022-11-03T00:33:56;12.70;99.90
26623;DHT22;14254;50.968;5.366;2022-11-03T00:36:39;12.70;99.90
26623;DHT22;14254;50.968;5.366;2022-11-03T00:39:06;12.70;99.90
26623;DHT22;14254;50.968;5.366;2022-11-03T00:41:32;12.80;99.90
26623;DHT22;14254;50.968;5.366;2022-11-03T00:43:58;12.80;99.90
26623;DHT22;14254;50.968;5.366;2022-11-03T00:46:24;12.80;99.90
26623;DHT22;14254;50.968;5.366;2022-11-03T00:48:50;12.80;99.90
26623;DHT22;14254;50.968;5.366;2022-11-03T00:51:23;12.80;99.90
26623;DHT22;14254;50.968;5.366;2022-11-03T00:53:54;12.80;99.90
26623;DHT22;14254;50.968;5.366;2022-11-03T00:56:25;12.80;99.90
26623;DHT22;14254;50.968;5.366;2022-11-03T00:58:52;12.70;99.90
26623;DHT22;14254;50.968;5.366;2022-11-03T01:01:32;12.70;99.90
26623;DHT22;14254;50.968;5.366;2022-11-03T01:04:02;12.80;99.90
26623;DHT22;14254;50.968;5.366;2022-11-03T01:06:48;12.80;99.90
26623;DHT22;14254;50.968;5.366;2022-11-03T01:11:40;12.90;99.90
26623;DHT22;14254;50.968;5.366;2022-11-03T01:14:10;12.90;99.90
26623;DHT22;14254;50.968;5.366;2022-11-03T01:16:36;12.80;99.90
26623;DHT22;14254;50.968;5.366;2022-11-03T01:19:02;12.90;99.90
26623;DHT22;14254;50.968;5.366;2022-11-03T01:21:28;12.80;99.90
26623;DHT22;14254;50.968;5.366;2022-11-03T01:23:53;12.90;99.90
26623;DHT22;14254;50.968;5.366;2022-11-03T01:26:19;12.90;99.90
26623;DHT22;14254;50.968;5.366;2022-11-03T01:28:46;12.90;99.90
26623;DHT22;14254;50.968;5.366;2022-11-03T01:31:19;12.90;99.90
26623;DHT22;14254;50.968;5.366;2022-11-03T01:33:46;12.80;99.90
26623;DHT22;14254;50.968;5.366;2022-11-03T01:36:14;12.80;99.90
26623;DHT22;14254;50.968;5.366;2022-11-03T01:38:40;12.80;99.90
26623;DHT22;14254;50.968;5.366;2022-11-03T01:41:08;12.80;99.90
26623;DHT22;14254;50.968;5.366;2022-11-03T01:43:36;12.80;99.90
26623;DHT22;14254;50.968;5.366;2022-11-03T01:48:32;12.80;99.90
26623;DHT22;14254;50.968;5.366;2022-11-03T01:50:59;12.90;99.90
26623;DHT22;14254;50.968;5.366;2022-11-03T01:53:26;12.90;99.90
26623;DHT22;14254;50.968;5.366;2022-11-03T01:55:53;12.90;99.90
26623;DHT22;14254;50.968;5.366;2022-11-03T01:58:26;12.90;99.90
26623;DHT22;14254;50.968;5.366;2022-11-03T02:00:54;12.90;99.90
26623;DHT22;14254;50.968;5.366;2022-11-03T02:03:21;12.90;99.90
26623;DHT22;14254;50.968;5.366;2022-11-03T02:05:48;12.90;99.90
26623;DHT22;14254;50.968;5.366;2022-11-03T02:08:19;13.00;99.90
26623;DHT22;14254;50.968;5.366;2022-11-03T02:10:49;13.00;99.90
26623;DHT22;14254;50.968;5.366;2022-11-03T02:13:22;13.00;99.90
26623;DHT22;14254;50.968;5.366;2022-11-03T02:15:51;13.00;99.90
26623;DHT22;14254;50.968;5.366;2022-11-03T02:18:20;12.90;99.90
26623;DHT22;14254;50.968;5.366;2022-11-03T02:20:55;13.00;99.90
26623;DHT22;14254;50.968;5.366;2022-11-03T02:24:23;13.00;99.90
26623;DHT22;14254;50.968;5.366;2022-11-03T02:26:20;12.90;99.90
26623;DHT22;14254;50.968;5.366;2022-11-03T02:28:47;12.90;99.90
26623;DHT22;14254;50.968;5.366;2022-11-03T02:31:29;12.90;99.90
26623;DHT22;14254;50.968;5.366;2022-11-03T02:34:13;13.00;99.90
26623;DHT22;14254;50.968;5.366;2022-11-03T02:36:45;13.00;99.90
26623;DHT22;14254;50.968;5.366;2022-11-03T02:41:39;12.90;99.90
26623;DHT22;14254;50.968;5.366;2022-11-03T02:44:14;12.90;99.90
26623;DHT22;14254;50.968;5.366;2022-11-03T02:46:42;12.90;99.90
26623;DHT22;14254;50.968;5.366;2022-11-03T02:49:09;12.90;99.90
26623;DHT22;14254;50.968;5.366;2022-11-03T02:51:34;12.90;99.90
26623;DHT22;14254;50.968;5.366;2022-11-03T02:54:05;13.00;99.90
26623;DHT22;14254;50.968;5.366;2022-11-03T02:56:36;13.00;99.90
26623;DHT22;14254;50.968;5.366;2022-11-03T02:59:10;13.10;99.90
26623;DHT22;14254;50.968;5.366;2022-11-03T03:01:44;12.90;99.90
26623;DHT22;14254;50.968;5.366;2022-11-03T03:04:27;12.90;99.90
26623;DHT22;14254;50.968;5.366;2022-11-03T03:07:05;13.10;99.90
26623;DHT22;14254;50.968;5.366;2022-11-03T03:09:43;13.10;99.90
26623;DHT22;14254;50.968;5.366;2022-11-03T03:12:11;13.10;99.90
26623;DHT22;14254;50.968;5.366;2022-11-03T03:14:41;13.20;99.90
26623;DHT22;14254;50.968;5.366;2022-11-03T03:17:14;13.20;99.90
26623;DHT22;14254;50.968;5.366;2022-11-03T03:19:48;13.20;99.90
26623;DHT22;14254;50.968;5.366;2022-11-03T03:22:27;13.20;99.90
26623;DHT22;14254;50.968;5.366;2022-11-03T03:25:09;13.30;99.90
26623;DHT22;14254;50.968;5.366;2022-11-03T03:27:39;13.20;99.90
26623;DHT22;14254;50.968;5.366;2022-11-03T03:30:07;13.30;99.90
26623;DHT22;14254;50.968;5.366;2022-11-03T03:32:39;13.20;99.90
26623;DHT22;14254;50.968;5.366;2022-11-03T03:35:09;13.20;99.90
26623;DHT22;14254;50.968;5.366;2022-11-03T03:37:39;13.20;99.90
26623;DHT22;14254;50.968;5.366;2022-11-03T03:40:08;13.20;99.90
26623;DHT22;14254;50.968;5.366;2022-11-03T03:42:36;13.20;99.90
26623;DHT22;14254;50.968;5.366;2022-11-03T03:45:03;13.20;99.90
26623;DHT22;14254;50.968;5.366;2022-11-03T03:47:31;13.20;99.90
26623;DHT22;14254;50.968;5.366;2022-11-03T03:49:58;13.20;99.90
26623;DHT22;14254;50.968;5.366;2022-11-03T03:52:25;13.30;99.90
26623;DHT22;14254;50.968;5.366;2022-11-03T03:54:51;13.30;99.90
26623;DHT22;14254;50.968;5.366;2022-11-03T03:57:19;13.30;99.90
26623;DHT22;14254;50.968;5.366;2022-11-03T03:59:46;13.30;99.90
26623;DHT22;14254;50.968;5.366;2022-11-03T04:02:12;13.30;99.90
26623;DHT22;14254;50.968;5.366;2022-11-03T04:04:39;13.30;99.90
26623;DHT22;14254;50.968;5.366;2022-11-03T04:07:05;13.30;99.90
26623;DHT22;14254;50.968;5.366;2022-11-03T04:09:49;13.40;99.90
26623;DHT22;14254;50.968;5.366;2022-11-03T04:12:14;13.30;99.90
26623;DHT22;14254;50.968;5.366;2022-11-03T04:14:58;13.30;99.90
26623;DHT22;14254;50.968;5.366;2022-11-03T04:17:45;13.40;99.90
26623;DHT22;14254;50.968;5.366;2022-11-03T04:20:29;13.30;99.90
26623;DHT22;14254;50.968;5.366;2022-11-03T04:23:14;13.30;99.90
26623;DHT22;14254;50.968;5.366;2022-11-03T04:25:41;13.30;99.90
26623;DHT22;14254;50.968;5.366;2022-11-03T04:28:12;13.30;99.90
26623;DHT22;14254;50.968;5.366;2022-11-03T04:30:38;13.30;99.90
26623;DHT22;14254;50.968;5.366;2022-11-03T04:33:14;13.30;99.90
26623;DHT22;14254;50.968;5.366;2022-11-03T04:35:41;13.40;99.90
26623;DHT22;14254;50.968;5.366;2022-11-03T04:40:43;13.40;99.90
26623;DHT22;14254;50.968;5.366;2022-11-03T04:43:12;13.40;99.90
26623;DHT22;14254;50.968;5.366;2022-11-03T04:45:38;13.40;99.90
26623;DHT22;14254;50.968;5.366;2022-11-03T04:48:18;13.30;99.90
26623;DHT22;14254;50.968;5.366;2022-11-03T04:50:46;13.30;99.90
26623;DHT22;14254;50.968;5.366;2022-11-03T04:53:14;13.20;99.90
26623;DHT22;14254;50.968;5.366;2022-11-03T04:55:41;13.20;99.90
26623;DHT22;14254;50.968;5.366;2022-11-03T04:58:19;13.20;99.90
26623;DHT22;14254;50.968;5.366;2022-11-03T05:00:50;13.20;99.90
26623;DHT22;14254;50.968;5.366;2022-11-03T05:03:21;13.20;99.90
26623;DHT22;14254;50.968;5.366;2022-11-03T05:05:48;13.20;99.90
26623;DHT22;14254;50.968;5.366;2022-11-03T05:08:16;13.10;99.90
26623;DHT22;14254;50.968;5.366;2022-11-03T05:10:42;13.10;99.90
26623;DHT22;14254;50.968;5.366;2022-11-03T05:13:26;13.20;99.90
26623;DHT22;14254;50.968;5.366;2022-11-03T05:15:55;13.10;99.90
26623;DHT22;14254;50.968;5.366;2022-11-03T05:18:34;13.00;99.90
26623;DHT22;14254;50.968;5.366;2022-11-03T05:21:14;13.00;99.90
26623;DHT22;14254;50.968;5.366;2022-11-03T05:23:51;13.00;99.90
26623;DHT22;14254;50.968;5.366;2022-11-03T05:26:20;13.00;99.90
26623;DHT22;14254;50.968;5.366;2022-11-03T05:28:52;13.10;99.90
26623;DHT22;14254;50.968;5.366;2022-11-03T05:31:31;13.10;99.90
26623;DHT22;14254;50.968;5.366;2022-11-03T05:34:15;13.10;99.90
26623;DHT22;14254;50.968;5.366;2022-11-03T05:36:45;13.10;99.90
26623;DHT22;14254;50.968;5.366;2022-11-03T05:39:29;13.10;99.90
26623;DHT22;14254;50.968;5.366;2022-11-03T05:41:57;13.20;99.90
26623;DHT22;14254;50.968;5.366;2022-11-03T05:44:36;13.20;99.90
26623;DHT22;14254;50.968;5.366;2022-11-03T05:49:55;13.10;99.90
26623;DHT22;14254;50.968;5.366;2022-11-03T05:52:26;13.10;99.90
26623;DHT22;14254;50.968;5.366;2022-11-03T05:54:53;13.00;99.90
26623;DHT22;14254;50.968;5.366;2022-11-03T05:57:19;13.10;99.90
26623;DHT22;14254;50.968;5.366;2022-11-03T05:59:47;13.10;99.90
26623;DHT22;14254;50.968;5.366;2022-11-03T06:02:36;13.10;99.90
26623;DHT22;14254;50.968;5.366;2022-11-03T06:05:17;13.20;99.90
26623;DHT22;14254;50.968;5.366;2022-11-03T06:07:44;13.20;99.90
26623;DHT22;14254;50.968;5.366;2022-11-03T06:12:45;13.20;99.90
26623;DHT22;14254;50.968;5.366;2022-11-03T06:15:23;13.10;99.90
26623;DHT22;14254;50.968;5.366;2022-11-03T06:17:51;13.20;99.90
26623;DHT22;14254;50.968;5.366;2022-11-03T06:20:19;13.20;99.90
26623;DHT22;14254;50.968;5.366;2022-11-03T06:22:46;13.20;99.90
26623;DHT22;14254;50.968;5.366;2022-11-03T06:25:35;13.10;99.90
26623;DHT22;14254;50.968;5.366;2022-11-03T06:28:04;13.20;99.90
26623;DHT22;14254;50.968;5.366;2022-11-03T06:30:33;13.20;99.90
26623;DHT22;14254;50.968;5.366;2022-11-03T06:33:21;13.10;99.90
26623;DHT22;14254;50.968;5.366;2022-11-03T06:35:50;13.10;99.90
26623;DHT22;14254;50.968;5.366;2022-11-03T06:38:22;13.20;99.90
26623;DHT22;14254;50.968;5.366;2022-11-03T06:40:50;13.10;99.90
26623;DHT22;14254;50.968;5.366;2022-11-03T06:43:39;13.00;99.90
26623;DHT22;14254;50.968;5.366;2022-11-03T06:46:18;13.10;99.90
26623;DHT22;14254;50.968;5.366;2022-11-03T06:48:44;13.10;99.90
26623;DHT22;14254;50.968;5.366;2022-11-03T06:51:25;13.10;99.90
26623;DHT22;14254;50.968;5.366;2022-11-03T06:53:53;13.10;99.90
26623;DHT22;14254;50.968;5.366;2022-11-03T06:56:21;13.10;99.90
26623;DHT22;14254;50.968;5.366;2022-11-03T06:58:48;13.20;99.90
26623;DHT22;14254;50.968;5.366;2022-11-03T07:01:17;13.20;99.90
26623;DHT22;14254;50.968;5.366;2022-11-03T07:03:44;13.30;99.90
26623;DHT22;14254;50.968;5.366;2022-11-03T07:08:44;13.30;99.90
26623;DHT22;14254;50.968;5.366;2022-11-03T07:11:16;13.20;99.90
26623;DHT22;14254;50.968;5.366;2022-11-03T07:13:43;13.40;99.90
26623;DHT22;14254;50.968;5.366;2022-11-03T07:16:32;13.40;99.90
26623;DHT22;14254;50.968;5.366;2022-11-03T07:19:04;13.40;99.90
26623;DHT22;14254;50.968;5.366;2022-11-03T07:21:39;13.30;99.90
26623;DHT22;14254;50.968;5.366;2022-11-03T07:24:24;13.30;99.90
26623;DHT22;14254;50.968;5.366;2022-11-03T07:26:58;13.40;99.90
26623;DHT22;14254;50.968;5.366;2022-11-03T07:29:26;13.40;99.90
26623;DHT22;14254;50.968;5.366;2022-11-03T07:31:53;13.40;99.90
26623;DHT22;14254;50.968;5.366;2022-11-03T07:34:21;13.50;99.90
26623;DHT22;14254;50.968;5.366;2022-11-03T07:36:49;13.50;99.90
26623;DHT22;14254;50.968;5.366;2022-11-03T07:39:18;13.60;99.90
26623;DHT22;14254;50.968;5.366;2022-11-03T07:41:44;13.50;99.90
26623;DHT22;14254;50.968;5.366;2022-11-03T07:44:17;13.50;99.90
26623;DHT22;14254;50.968;5.366;2022-11-03T07:46:45;13.50;99.90
26623;DHT22;14254;50.968;5.366;2022-11-03T07:49:27;13.60;99.90
26623;DHT22;14254;50.968;5.366;2022-11-03T07:51:55;13.70;99.90
26623;DHT22;14254;50.968;5.366;2022-11-03T07:54:24;13.70;99.90
26623;DHT22;14254;50.968;5.366;2022-11-03T07:56:59;13.70;99.90
26623;DHT22;14254;50.968;5.366;2022-11-03T07:59:35;13.80;99.90
26623;DHT22;14254;50.968;5.366;2022-11-03T08:02:01;13.80;99.90
26623;DHT22;14254;50.968;5.366;2022-11-03T08:04:36;13.90;99.90
26623;DHT22;14254;50.968;5.366;2022-11-03T08:07:02;13.90;99.90
26623;DHT22;14254;50.968;5.366;2022-11-03T08:09:27;14.00;99.90
26623;DHT22;14254;50.968;5.366;2022-11-03T08:11:53;14.00;99.90
26623;DHT22;14254;50.968;5.366;2022-11-03T08:14:18;14.10;99.90
26623;DHT22;14254;50.968;5.366;2022-11-03T08:16:44;14.10;99.90
26623;DHT22;14254;50.968;5.366;2022-11-03T08:19:10;14.20;99.90
26623;DHT22;14254;50.968;5.366;2022-11-03T08:21:35;14.20;99.90
26623;DHT22;14254;50.968;5.366;2022-11-03T08:24:01;14.20;99.90
26623;DHT22;14254;50.968;5.366;2022-11-03T08:26:27;14.20;99.90
26623;DHT22;14254;50.968;5.366;2022-11-03T08:28:53;14.20;99.90
26623;DHT22;14254;50.968;5.366;2022-11-03T08:31:19;14.20;99.90
26623;DHT22;14254;50.968;5.366;2022-11-03T08:33:45;14.30;99.90
26623;DHT22;14254;50.968;5.366;2022-11-03T08:36:10;14.30;99.90
26623;DHT22;14254;50.968;5.366;2022-11-03T08:38:36;14.30;99.90
26623;DHT22;14254;50.968;5.366;2022-11-03T08:41:02;14.40;99.90
26623;DHT22;14254;50.968;5.366;2022-11-03T08:43:28;14.30;99.90
26623;DHT22;14254;50.968;5.366;2022-11-03T08:45:54;14.40;99.90
26623;DHT22;14254;50.968;5.366;2022-11-03T08:48:21;14.40;99.90
26623;DHT22;14254;50.968;5.366;2022-11-03T08:50:47;14.40;99.90
26623;DHT22;14254;50.968;5.366;2022-11-03T08:53:15;14.30;99.90
26623;DHT22;14254;50.968;5.366;2022-11-03T08:55:41;14.50;99.90
26623;DHT22;14254;50.968;5.366;2022-11-03T08:58:07;14.50;99.90
26623;DHT22;14254;50.968;5.366;2022-11-03T09:00:33;14.50;99.90
26623;DHT22;14254;50.968;5.366;2022-11-03T09:03:00;14.50;99.90
26623;DHT22;14254;50.968;5.366;2022-11-03T09:05:25;14.40;99.90
26623;DHT22;14254;50.968;5.366;2022-11-03T09:07:51;14.50;99.90
26623;DHT22;14254;50.968;5.366;2022-11-03T09:10:17;14.50;99.90
26623;DHT22;14254;50.968;5.366;2022-11-03T09:12:42;14.50;99.90
26623;DHT22;14254;50.968;5.366;2022-11-03T09:15:08;14.50;99.90
26623;DHT22;14254;50.968;5.366;2022-11-03T09:17:34;14.60;99.90
26623;DHT22;14254;50.968;5.366;2022-11-03T09:20:00;14.50;99.90
26623;DHT22;14254;50.968;5.366;2022-11-03T09:22:25;14.60;99.90
26623;DHT22;14254;50.968;5.366;2022-11-03T09:24:51;14.60;99.90
26623;DHT22;14254;50.968;5.366;2022-11-03T09:27:17;14.70;99.90
26623;DHT22;14254;50.968;5.366;2022-11-03T09:29:42;14.70;99.90
26623;DHT22;14254;50.968;5.366;2022-11-03T09:32:08;14.70;99.90
26623;DHT22;14254;50.968;5.366;2022-11-03T09:34:34;14.70;99.90
26623;DHT22;14254;50.968;5.366;2022-11-03T09:37:00;14.70;99.90
26623;DHT22;14254;50.968;5.366;2022-11-03T09:39:25;14.70;99.90
26623;DHT22;14254;50.968;5.366;2022-11-03T09:41:52;14.80;99.90
26623;DHT22;14254;50.968;5.366;2022-11-03T09:44:18;14.70;99.90
26623;DHT22;14254;50.968;5.366;2022-11-03T09:46:44;14.80;99.90
26623;DHT22;14254;50.968;5.366;2022-11-03T09:49:15;14.70;99.90
26623;DHT22;14254;50.968;5.366;2022-11-03T09:51:42;14.80;99.90
26623;DHT22;14254;50.968;5.366;2022-11-03T09:54:12;14.80;99.90
26623;DHT22;14254;50.968;5.366;2022-11-03T09:56:38;14.90;99.90
26623;DHT22;14254;50.968;5.366;2022-11-03T09:59:13;14.90;99.90
26623;DHT22;14254;50.968;5.366;2022-11-03T10:01:39;14.90;99.90
26623;DHT22;14254;50.968;5.366;2022-11-03T10:04:08;15.00;99.90
26623;DHT22;14254;50.968;5.366;2022-11-03T10:06:35;15.00;99.90
26623;DHT22;14254;50.968;5.366;2022-11-03T10:09:01;15.00;99.90
26623;DHT22;14254;50.968;5.366;2022-11-03T10:11:27;15.10;99.90
26623;DHT22;14254;50.968;5.366;2022-11-03T10:13:54;14.90;99.90
26623;DHT22;14254;50.968;5.366;2022-11-03T10:16:22;15.00;99.90
26623;DHT22;14254;50.968;5.366;2022-11-03T10:18:48;15.00;99.90
26623;DHT22;14254;50.968;5.366;2022-11-03T10:21:26;15.00;99.90
26623;DHT22;14254;50.968;5.366;2022-11-03T10:23:54;15.00;99.90
26623;DHT22;14254;50.968;5.366;2022-11-03T10:26:20;14.90;99.90
26623;DHT22;14254;50.968;5.366;2022-11-03T10:31:47;15.00;99.90
26623;DHT22;14254;50.968;5.366;2022-11-03T10:37:22;15.10;99.90
26623;DHT22;14254;50.968;5.366;2022-11-03T10:39:53;15.20;99.90
26623;DHT22;14254;50.968;5.366;2022-11-03T10:42:28;15.50;99.90
26623;DHT22;14254;50.968;5.366;2022-11-03T10:45:15;15.60;99.90
26623;DHT22;14254;50.968;5.366;2022-11-03T10:47:42;15.80;99.90
26623;DHT22;14254;50.968;5.366;2022-11-03T10:50:25;16.10;99.90
26623;DHT22;14254;50.968;5.366;2022-11-03T10:52:52;16.30;99.90
26623;DHT22;14254;50.968;5.366;2022-11-03T10:55:20;16.50;99.90
26623;DHT22;14254;50.968;5.366;2022-11-03T10:57:46;16.40;99.90
26623;DHT22;14254;50.968;5.366;2022-11-03T11:00:16;16.20;99.90
26623;DHT22;14254;50.968;5.366;2022-11-03T11:02:44;16.00;99.90
26623;DHT22;14254;50.968;5.366;2022-11-03T11:07:41;15.90;99.90
26623;DHT22;14254;50.968;5.366;2022-11-03T11:10:28;16.00;99.90
26623;DHT22;14254;50.968;5.366;2022-11-03T11:15:45;16.00;99.90
26623;DHT22;14254;50.968;5.366;2022-11-03T11:20:58;15.80;99.90
26623;DHT22;14254;50.968;5.366;2022-11-03T11:28:34;15.90;99.90
26623;DHT22;14254;50.968;5.366;2022-11-03T11:31:00;15.90;99.90
26623;DHT22;14254;50.968;5.366;2022-11-03T11:33:27;15.90;99.90
26623;DHT22;14254;50.968;5.366;2022-11-03T11:41:10;16.10;99.90
26623;DHT22;14254;50.968;5.366;2022-11-03T11:43:36;16.10;99.90
26623;DHT22;14254;50.968;5.366;2022-11-03T11:49:34;16.00;99.90
26623;DHT22;14254;50.968;5.366;2022-11-03T11:51:35;16.10;99.90
26623;DHT22;14254;50.968;5.366;2022-11-03T11:54:07;16.10;99.90
26623;DHT22;14254;50.968;5.366;2022-11-03T11:56:44;16.20;99.90
26623;DHT22;14254;50.968;5.366;2022-11-03T11:59:29;16.20;99.90
26623;DHT22;14254;50.968;5.366;2022-11-03T12:01:55;16.10;99.90
26623;DHT22;14254;50.968;5.366;2022-11-03T12:04:24;16.00;99.90
26623;DHT22;14254;50.968;5.366;2022-11-03T12:06:51;16.10;99.90
26623;DHT22;14254;50.968;5.366;2022-11-03T12:09:19;16.00;99.90
26623;DHT22;14254;50.968;5.366;2022-11-03T12:11:56;16.20;99.90
26623;DHT22;14254;50.968;5.366;2022-11-03T12:16:54;16.30;99.90
26623;DHT22;14254;50.968;5.366;2022-11-03T12:19:40;16.20;99.90
26623;DHT22;14254;50.968;5.366;2022-11-03T12:24:55;16.20;99.90
26623;DHT22;14254;50.968;5.366;2022-11-03T12:32:17;16.40;99.90
26623;DHT22;14254;50.968;5.366;2022-11-03T12:34:43;16.50;99.90
26623;DHT22;14254;50.968;5.366;2022-11-03T12:37:08;16.60;99.90
26623;DHT22;14254;50.968;5.366;2022-11-03T12:39:34;16.60;99.90
26623;DHT22;14254;50.968;5.366;2022-11-03T12:42:00;16.70;99.90
26623;DHT22;14254;50.968;5.366;2022-11-03T12:44:26;16.50;99.90
26623;DHT22;14254;50.968;5.366;2022-11-03T12:46:52;16.50;99.90
26623;DHT22;14254;50.968;5.366;2022-11-03T12:49:17;16.50;99.90
26623;DHT22;14254;50.968;5.366;2022-11-03T12:51:43;16.60;99.90
26623;DHT22;14254;50.968;5.366;2022-11-03T12:54:08;16.60;99.90
26623;DHT22;14254;50.968;5.366;2022-11-03T12:56:34;16.60;99.90
26623;DHT22;14254;50.968;5.366;2022-11-03T12:59:00;16.50;99.90
26623;DHT22;14254;50.968;5.366;2022-11-03T13:01:25;16.40;99.90
26623;DHT22;14254;50.968;5.366;2022-11-03T13:03:51;16.30;99.90
26623;DHT22;14254;50.968;5.366;2022-11-03T13:06:17;16.10;99.90
26623;DHT22;14254;50.968;5.366;2022-11-03T13:08:43;16.20;99.90
26623;DHT22;14254;50.968;5.366;2022-11-03T13:11:09;15.90;99.90
26623;DHT22;14254;50.968;5.366;2022-11-03T13:13:53;16.00;99.90
26623;DHT22;14254;50.968;5.366;2022-11-03T13:16:19;16.00;99.90
26623;DHT22;14254;50.968;5.366;2022-11-03T13:18:45;16.00;99.90
26623;DHT22;14254;50.968;5.366;2022-11-03T13:21:11;15.70;99.90
26623;DHT22;14254;50.968;5.366;2022-11-03T13:23:38;15.40;99.90
26623;DHT22;14254;50.968;5.366;2022-11-03T13:26:04;15.20;99.90
26623;DHT22;14254;50.968;5.366;2022-11-03T13:28:29;15.00;99.90
26623;DHT22;14254;50.968;5.366;2022-11-03T13:30:55;14.80;99.90
26623;DHT22;14254;50.968;5.366;2022-11-03T13:33:21;14.70;99.90
26623;DHT22;14254;50.968;5.366;2022-11-03T13:35:47;14.60;99.90
26623;DHT22;14254;50.968;5.366;2022-11-03T13:38:13;14.60;99.90
26623;DHT22;14254;50.968;5.366;2022-11-03T13:40:39;14.50;99.90
26623;DHT22;14254;50.968;5.366;2022-11-03T13:43:04;14.50;99.90
26623;DHT22;14254;50.968;5.366;2022-11-03T13:45:30;14.50;99.90
26623;DHT22;14254;50.968;5.366;2022-11-03T13:47:55;14.40;99.90
26623;DHT22;14254;50.968;5.366;2022-11-03T13:50:22;14.30;99.90
26623;DHT22;14254;50.968;5.366;2022-11-03T13:52:48;14.30;99.90
26623;DHT22;14254;50.968;5.366;2022-11-03T13:55:14;14.20;99.90
26623;DHT22;14254;50.968;5.366;2022-11-03T13:57:40;14.20;99.90
26623;DHT22;14254;50.968;5.366;2022-11-03T14:00:06;14.10;99.90
26623;DHT22;14254;50.968;5.366;2022-11-03T14:02:33;14.10;99.90
26623;DHT22;14254;50.968;5.366;2022-11-03T14:04:59;14.10;99.90
26623;DHT22;14254;50.968;5.366;2022-11-03T14:07:25;14.10;99.90
26623;DHT22;14254;50.968;5.366;2022-11-03T14:09:51;14.00;99.90
26623;DHT22;14254;50.968;5.366;2022-11-03T14:12:17;14.00;99.90
26623;DHT22;14254;50.968;5.366;2022-11-03T14:14:59;14.00;99.90
26623;DHT22;14254;50.968;5.366;2022-11-03T14:17:25;13.90;99.90
26623;DHT22;14254;50.968;5.366;2022-11-03T14:19:51;13.90;99.90
26623;DHT22;14254;50.968;5.366;2022-11-03T14:22:21;13.90;99.90
26623;DHT22;14254;50.968;5.366;2022-11-03T14:24:48;13.90;99.90
26623;DHT22;14254;50.968;5.366;2022-11-03T14:27:14;13.80;99.90
26623;DHT22;14254;50.968;5.366;2022-11-03T14:29:41;13.80;99.90
26623;DHT22;14254;50.968;5.366;2022-11-03T14:32:08;13.70;99.90
26623;DHT22;14254;50.968;5.366;2022-11-03T14:34:33;13.80;99.90
26623;DHT22;14254;50.968;5.366;2022-11-03T14:36:59;13.70;99.90
26623;DHT22;14254;50.968;5.366;2022-11-03T14:39:25;13.80;99.90
26623;DHT22;14254;50.968;5.366;2022-11-03T14:41:51;13.90;99.90
26623;DHT22;14254;50.968;5.366;2022-11-03T14:44:33;13.90;99.90
26623;DHT22;14254;50.968;5.366;2022-11-03T14:47:00;13.90;99.90
26623;DHT22;14254;50.968;5.366;2022-11-03T14:49:29;13.90;99.90
26623;DHT22;14254;50.968;5.366;2022-11-03T14:51:56;13.80;99.90
26623;DHT22;14254;50.968;5.366;2022-11-03T14:54:25;13.70;99.90
26623;DHT22;14254;50.968;5.366;2022-11-03T14:56:50;13.60;99.90
26623;DHT22;14254;50.968;5.366;2022-11-03T14:59:16;13.70;99.90
26623;DHT22;14254;50.968;5.366;2022-11-03T15:01:42;13.50;99.90
26623;DHT22;14254;50.968;5.366;2022-11-03T15:04:08;13.50;99.90
26623;DHT22;14254;50.968;5.366;2022-11-03T15:06:34;13.60;99.90
26623;DHT22;14254;50.968;5.366;2022-11-03T15:09:00;13.50;99.90
26623;DHT22;14254;50.968;5.366;2022-11-03T15:11:26;13.50;99.90
26623;DHT22;14254;50.968;5.366;2022-11-03T15:13:51;13.50;99.90
26623;DHT22;14254;50.968;5.366;2022-11-03T15:16:19;13.50;99.90
26623;DHT22;14254;50.968;5.366;2022-11-03T15:18:45;13.50;99.90
26623;DHT22;14254;50.968;5.366;2022-11-03T15:21:11;13.50;99.90
26623;DHT22;14254;50.968;5.366;2022-11-03T15:23:36;13.50;99.90
26623;DHT22;14254;50.968;5.366;2022-11-03T15:26:02;13.40;99.90
26623;DHT22;14254;50.968;5.366;2022-11-03T15:28:28;13.30;99.90
26623;DHT22;14254;50.968;5.366;2022-11-03T15:30:53;13.40;99.90
26623;DHT22;14254;50.968;5.366;2022-11-03T15:33:19;13.40;99.90
26623;DHT22;14254;50.968;5.366;2022-11-03T15:35:45;13.30;99.90
26623;DHT22;14254;50.968;5.366;2022-11-03T15:38:11;13.30;99.90
26623;DHT22;14254;50.968;5.366;2022-11-03T15:40:37;13.30;99.90
26623;DHT22;14254;50.968;5.366;2022-11-03T15:43:03;13.20;99.90
26623;DHT22;14254;50.968;5.366;2022-11-03T15:45:31;13.10;99.90
26623;DHT22;14254;50.968;5.366;2022-11-03T15:47:57;13.00;99.90
26623;DHT22;14254;50.968;5.366;2022-11-03T15:50:23;12.90;99.90
26623;DHT22;14254;50.968;5.366;2022-11-03T15:52:50;12.90;99.90
26623;DHT22;14254;50.968;5.366;2022-11-03T15:55:16;12.90;99.90
26623;DHT22;14254;50.968;5.366;2022-11-03T15:57:41;12.90;99.90
26623;DHT22;14254;50.968;5.366;2022-11-03T16:00:09;13.00;99.90
26623;DHT22;14254;50.968;5.366;2022-11-03T16:02:35;12.90;99.90
26623;DHT22;14254;50.968;5.366;2022-11-03T16:05:01;12.90;99.90
26623;DHT22;14254;50.968;5.366;2022-11-03T16:07:27;12.90;99.90
26623;DHT22;14254;50.968;5.366;2022-11-03T16:09:53;12.80;99.90
26623;DHT22;14254;50.968;5.366;2022-11-03T16:12:18;12.90;99.90
26623;DHT22;14254;50.968;5.366;2022-11-03T16:14:44;12.80;99.90
26623;DHT22;14254;50.968;5.366;2022-11-03T16:17:10;12.80;99.90
26623;DHT22;14254;50.968;5.366;2022-11-03T16:19:35;12.80;99.90
26623;DHT22;14254;50.968;5.366;2022-11-03T16:22:01;12.80;99.90
26623;DHT22;14254;50.968;5.366;2022-11-03T16:24:27;12.80;99.90
26623;DHT22;14254;50.968;5.366;2022-11-03T16:26:52;12.70;99.90
26623;DHT22;14254;50.968;5.366;2022-11-03T16:29:18;12.70;99.90
26623;DHT22;14254;50.968;5.366;2022-11-03T16:31:44;12.70;99.90
26623;DHT22;14254;50.968;5.366;2022-11-03T16:34:12;12.70;99.90
26623;DHT22;14254;50.968;5.366;2022-11-03T16:36:38;12.60;99.90
26623;DHT22;14254;50.968;5.366;2022-11-03T16:39:03;12.60;99.90